createdAt,value
2022-10-23T00:01:47.973Z,22.17
2022-10-23T00:04:52.163Z,22.65
2022-10-23T00:07:58.107Z,23.62
2022-10-23T00:11:01.563Z,23.92
2022-10-23T00:14:06.784Z,24.30
2022-10-23T00:17:12.462Z,24.45
2022-10-23T00:20:16.995Z,24.58
2022-10-23T00:23:20.487Z,24.67
2022-10-23T00:26:23.638Z,24.65
2022-10-23T00:29:28.300Z,24.12
2022-10-23T00:35:35.620Z,23.93
2022-10-23T00:38:38.838Z,25.98
2022-10-23T00:41:43.081Z,26.40
2022-10-23T00:44:46.176Z,24.00
2022-10-23T00:47:49.905Z,22.70
2022-10-23T00:50:55.010Z,24.20
2022-10-23T00:54:12.958Z,22.65
2022-10-23T00:57:23.218Z,22.33
2022-10-23T01:00:29.562Z,22.98
2022-10-23T01:03:32.509Z,22.00
2022-10-23T01:06:38.732Z,23.48
2022-10-23T01:10:14.167Z,22.98
2022-10-23T01:13:28.314Z,23.00
2022-10-23T01:16:51.831Z,21.15
2022-10-23T01:19:58.752Z,20.88
2022-10-23T01:23:40.352Z,21.27
2022-10-23T01:27:15.959Z,21.42
2022-10-23T01:30:19.110Z,21.30
2022-10-23T01:33:32.159Z,21.52
2022-10-23T01:36:37.395Z,19.75
2022-10-23T01:39:47.364Z,22.20
2022-10-23T01:42:56.001Z,20.70
2022-10-23T01:46:03.612Z,20.37
2022-10-23T01:49:10.802Z,21.02
2022-10-23T01:52:18.085Z,20.58
2022-10-23T01:55:22.458Z,20.92
2022-10-23T01:58:27.332Z,20.37
2022-10-23T02:01:31.649Z,21.70
2022-10-23T02:05:04.904Z,20.55
2022-10-23T02:08:08.222Z,19.85
2022-10-23T02:11:21.910Z,19.67
2022-10-23T02:14:38.082Z,19.80
2022-10-23T02:18:04.741Z,19.83
2022-10-23T02:21:12.759Z,19.08
2022-10-23T02:24:20.255Z,17.62
2022-10-23T02:27:32.861Z,18.45
2022-10-23T02:30:50.867Z,18.58
2022-10-23T02:33:54.132Z,17.30
2022-10-23T02:36:57.965Z,17.02
2022-10-23T02:40:01.052Z,16.23
2022-10-23T02:43:15.077Z,18.52
2022-10-23T02:46:26.086Z,17.12
2022-10-23T02:49:38.215Z,16.87
2022-10-23T02:52:54.277Z,17.27
2022-10-23T02:56:12.951Z,15.95
2022-10-23T02:59:24.999Z,16.48
2022-10-23T03:02:43.728Z,16.77
2022-10-23T03:05:47.852Z,14.93
2022-10-23T03:08:54.896Z,15.90
2022-10-23T03:12:00.714Z,15.02
2022-10-23T03:15:09.145Z,14.25
2022-10-23T03:18:13.870Z,15.00
2022-10-23T03:21:17.462Z,14.23
2022-10-23T03:24:21.222Z,16.27
2022-10-23T03:27:24.686Z,17.58
2022-10-23T03:30:29.444Z,16.83
2022-10-23T03:33:33.175Z,20.40
2022-10-23T03:36:41.440Z,15.68
2022-10-23T03:39:44.825Z,16.45
2022-10-23T03:42:47.917Z,19.90
2022-10-23T03:45:52.406Z,16.85
2022-10-23T03:48:58.335Z,16.70
2022-10-23T03:52:04.007Z,15.25
2022-10-23T03:55:07.755Z,19.02
2022-10-23T03:58:12.718Z,16.83
2022-10-23T04:01:15.803Z,17.48
2022-10-23T04:07:23.888Z,15.07
2022-10-23T04:10:27.586Z,15.70
2022-10-23T04:13:32.285Z,16.45
2022-10-23T04:16:35.565Z,16.65
2022-10-23T04:19:39.281Z,17.23
2022-10-23T04:22:42.793Z,16.65
2022-10-23T04:28:49.700Z,16.27
2022-10-23T04:31:52.684Z,14.90
2022-10-23T04:34:56.084Z,14.90
2022-10-23T04:37:59.117Z,15.73
2022-10-23T04:41:02.736Z,14.57
2022-10-23T04:44:06.572Z,14.77
2022-10-23T04:47:12.459Z,15.70
2022-10-23T04:50:17.351Z,15.45
2022-10-23T04:53:40.827Z,15.70
2022-10-23T04:56:52.252Z,15.48
2022-10-23T04:59:56.674Z,21.65
2022-10-23T05:03:00.496Z,16.27
2022-10-23T05:06:07.942Z,16.33
2022-10-23T05:09:13.568Z,15.82
2022-10-23T05:12:19.907Z,14.38
2022-10-23T05:15:24.930Z,13.98
2022-10-23T05:18:31.087Z,19.70
2022-10-23T05:21:37.340Z,19.08
2022-10-23T05:24:42.338Z,16.60
2022-10-23T05:27:47.435Z,17.08
2022-10-23T05:30:53.074Z,16.50
2022-10-23T05:34:00.517Z,17.67
2022-10-23T05:37:07.017Z,17.92
2022-10-23T05:40:11.434Z,16.92
2022-10-23T05:43:15.058Z,15.18
2022-10-23T05:46:18.639Z,14.70
2022-10-23T05:49:26.220Z,15.85
2022-10-23T05:52:29.591Z,14.50
2022-10-23T05:55:43.761Z,13.20
2022-10-23T05:58:47.291Z,13.75
2022-10-23T06:01:53.059Z,12.48
2022-10-23T06:04:56.885Z,13.35
2022-10-23T06:08:00.571Z,14.50
2022-10-23T06:11:14.319Z,14.38
2022-10-23T06:14:19.503Z,50.42
2022-10-23T06:17:24.458Z,20.77
2022-10-23T06:20:28.775Z,14.57
2022-10-23T06:23:37.470Z,14.60
2022-10-23T06:26:41.257Z,15.90
2022-10-23T06:29:45.087Z,15.57
2022-10-23T06:32:48.892Z,20.42
2022-10-23T06:35:56.369Z,18.75
2022-10-23T06:42:08.690Z,17.30
2022-10-23T06:45:13.059Z,16.50
2022-10-23T06:48:18.181Z,16.90
2022-10-23T06:54:27.410Z,23.12
2022-10-23T06:57:32.410Z,16.62
2022-10-23T07:00:38.463Z,20.73
2022-10-23T07:03:42.479Z,19.73
2022-10-23T07:06:46.982Z,20.52
2022-10-23T07:09:50.341Z,25.67
2022-10-23T07:13:00.722Z,20.75
2022-10-23T07:16:12.513Z,26.30
2022-10-23T07:19:15.845Z,22.95
2022-10-23T07:22:21.471Z,24.63
2022-10-23T07:25:26.265Z,20.55
2022-10-23T07:28:29.225Z,19.97
2022-10-23T07:31:32.838Z,17.77
2022-10-23T07:34:45.326Z,18.55
2022-10-23T07:37:50.327Z,21.87
2022-10-23T07:40:54.148Z,21.17
2022-10-23T07:43:57.501Z,20.62
2022-10-23T07:47:00.927Z,20.52
2022-10-23T07:50:05.816Z,21.27
2022-10-23T07:56:24.759Z,18.92
2022-10-23T07:59:37.130Z,19.77
2022-10-23T08:02:42.049Z,20.52
2022-10-23T08:05:46.427Z,21.07
2022-10-23T08:08:49.685Z,19.98
2022-10-23T08:11:53.954Z,20.30
2022-10-23T08:14:57.472Z,21.98
2022-10-23T08:18:01.511Z,22.27
2022-10-23T08:21:05.345Z,21.73
2022-10-23T08:24:13.977Z,23.12
2022-10-23T08:27:17.374Z,21.67
2022-10-23T08:30:20.868Z,21.85
2022-10-23T08:33:24.832Z,22.10
2022-10-23T08:36:30.463Z,22.25
2022-10-23T08:39:33.578Z,21.83
2022-10-23T08:42:39.423Z,21.25
2022-10-23T08:45:47.308Z,20.67
2022-10-23T08:49:05.780Z,19.55
2022-10-23T08:52:40.383Z,20.25
2022-10-23T08:55:46.306Z,18.75
2022-10-23T08:58:54.877Z,18.60
2022-10-23T09:02:04.334Z,19.45
2022-10-23T09:05:15.291Z,18.90
2022-10-23T09:08:31.016Z,17.80
2022-10-23T09:15:13.768Z,19.45
2022-10-23T09:18:20.167Z,19.35
2022-10-23T09:21:28.392Z,18.02
2022-10-23T09:24:33.508Z,17.10
2022-10-23T09:27:36.904Z,16.27
2022-10-23T09:30:42.773Z,17.77
2022-10-23T09:34:01.397Z,15.88
2022-10-23T09:37:21.492Z,15.45
2022-10-23T09:40:27.909Z,14.93
2022-10-23T09:43:32.276Z,15.32
2022-10-23T09:46:43.678Z,15.90
2022-10-23T09:49:52.027Z,14.93
2022-10-23T09:52:56.007Z,15.90
2022-10-23T09:56:28.910Z,15.32
2022-10-23T09:59:36.626Z,14.35
2022-10-23T10:03:02.092Z,14.57
2022-10-23T10:06:06.196Z,14.40
2022-10-23T10:09:16.344Z,14.00
2022-10-23T10:12:35.870Z,12.10
2022-10-23T10:15:46.115Z,13.70
2022-10-23T10:19:17.506Z,10.35
2022-10-23T10:22:33.518Z,11.93
2022-10-23T10:25:53.270Z,11.63
2022-10-23T10:28:59.753Z,8.88
2022-10-23T10:32:14.348Z,7.07
2022-10-23T10:35:38.292Z,5.40
2022-10-23T10:38:51.133Z,4.97
2022-10-23T10:42:16.855Z,5.05
2022-10-23T10:45:25.003Z,7.03
2022-10-23T10:49:03.400Z,3.65
2022-10-23T10:52:18.635Z,5.97
2022-10-23T10:55:34.539Z,3.80
2022-10-23T10:58:57.024Z,2.00
2022-10-23T11:02:20.021Z,2.15
2022-10-23T11:05:33.302Z,2.33
2022-10-23T11:08:49.956Z,1.65
2022-10-23T11:12:01.417Z,1.50
2022-10-23T11:15:04.851Z,1.27
2022-10-23T11:18:13.737Z,1.70
2022-10-23T11:21:37.902Z,1.00
2022-10-23T11:25:18.390Z,1.95
2022-10-23T11:28:34.056Z,1.20
2022-10-23T11:31:39.764Z,1.30
2022-10-23T11:34:58.180Z,1.30
2022-10-23T11:38:18.671Z,1.12
2022-10-23T11:41:26.682Z,1.50
2022-10-23T11:44:50.318Z,1.30
2022-10-23T11:48:03.365Z,1.02
2022-10-23T11:51:25.146Z,1.05
2022-10-23T11:54:28.126Z,1.33
2022-10-23T12:00:40.504Z,1.67
2022-10-23T12:03:50.236Z,1.40
2022-10-23T12:07:00.253Z,1.45
2022-10-23T12:10:36.302Z,1.20
2022-10-23T12:13:39.358Z,0.73
2022-10-23T12:16:42.577Z,0.60
2022-10-23T12:19:49.914Z,0.40
2022-10-23T12:23:02.049Z,0.50
2022-10-23T12:26:35.790Z,0.90
2022-10-23T12:29:52.210Z,0.60
2022-10-23T12:33:26.191Z,0.43
2022-10-23T12:36:51.264Z,0.60
2022-10-23T12:39:59.255Z,0.70
2022-10-23T12:43:02.800Z,0.40
2022-10-23T12:46:22.577Z,0.43
2022-10-23T12:49:28.084Z,0.60
2022-10-23T12:52:33.405Z,0.50
2022-10-23T12:55:52.553Z,0.60
2022-10-23T12:58:58.093Z,0.60
2022-10-23T13:02:01.689Z,0.60
2022-10-23T13:05:12.974Z,0.70
2022-10-23T13:08:16.940Z,0.47
2022-10-23T13:11:22.297Z,1.25
2022-10-23T13:14:39.456Z,1.10
2022-10-23T13:17:46.226Z,1.52
2022-10-23T13:23:55.820Z,1.98
2022-10-23T13:26:59.595Z,2.50
2022-10-23T13:30:04.023Z,3.67
2022-10-23T13:33:24.634Z,4.65
2022-10-23T13:36:34.613Z,4.32
2022-10-23T13:39:38.734Z,4.15
2022-10-23T13:42:42.147Z,3.75
2022-10-23T13:45:45.562Z,3.90
2022-10-23T13:48:49.462Z,4.03
2022-10-23T13:51:55.418Z,5.40
2022-10-23T13:54:58.390Z,6.20
2022-10-23T13:58:02.927Z,6.90
2022-10-23T14:01:08.293Z,7.75
2022-10-23T14:04:12.984Z,8.00
2022-10-23T14:07:16.415Z,9.57
2022-10-23T14:10:20.645Z,9.85
2022-10-23T14:13:25.313Z,9.10
2022-10-23T14:16:28.711Z,9.85
2022-10-23T14:19:34.064Z,9.60
2022-10-23T14:22:38.231Z,9.52
2022-10-23T14:25:41.150Z,9.80
2022-10-23T14:28:45.218Z,9.43
2022-10-23T14:31:48.212Z,9.65
2022-10-23T14:34:55.111Z,11.23
2022-10-23T14:37:58.640Z,9.63
2022-10-23T14:41:02.268Z,10.13
2022-10-23T14:44:05.004Z,9.57
2022-10-23T14:47:09.237Z,10.73
2022-10-23T14:50:13.042Z,12.13
2022-10-23T14:53:16.660Z,10.75
2022-10-23T14:56:19.991Z,9.70
2022-10-23T14:59:23.356Z,9.85
2022-10-23T15:02:26.377Z,9.18
2022-10-23T15:05:29.598Z,10.65
2022-10-23T15:08:33.021Z,8.05
2022-10-23T15:11:36.263Z,5.70
2022-10-23T15:14:40.568Z,4.90
2022-10-23T15:17:43.896Z,3.75
2022-10-23T15:20:52.984Z,4.05
2022-10-23T15:23:55.877Z,3.67
2022-10-23T15:27:00.533Z,3.92
2022-10-23T15:30:05.445Z,3.15
2022-10-23T15:33:09.354Z,3.40
2022-10-23T15:36:13.059Z,3.70
2022-10-23T15:39:19.896Z,3.33
2022-10-23T15:42:28.628Z,3.00
2022-10-23T15:45:32.750Z,3.67
2022-10-23T15:48:37.193Z,3.37
2022-10-23T15:51:42.791Z,4.60
2022-10-23T15:54:46.785Z,4.15
2022-10-23T15:57:50.149Z,4.70
2022-10-23T16:00:53.943Z,3.87
2022-10-23T16:03:57.387Z,4.22
2022-10-23T16:07:00.778Z,4.28
2022-10-23T16:10:05.700Z,5.10
2022-10-23T16:13:09.699Z,3.60
2022-10-23T16:16:13.315Z,4.97
2022-10-23T16:19:17.690Z,4.07
2022-10-23T16:22:21.404Z,3.90
2022-10-23T16:25:39.955Z,3.53
2022-10-23T16:28:47.328Z,3.40
2022-10-23T16:31:55.761Z,3.62
2022-10-23T16:34:59.951Z,2.58
2022-10-23T16:38:11.464Z,2.40
2022-10-23T16:41:16.440Z,2.22
2022-10-23T16:44:19.661Z,2.47
2022-10-23T16:47:25.840Z,2.22
2022-10-23T16:50:30.357Z,2.33
2022-10-23T16:53:38.858Z,2.33
2022-10-23T16:59:48.756Z,3.92
2022-10-23T17:06:06.093Z,3.00
2022-10-23T17:09:15.899Z,2.78
2022-10-23T17:12:20.423Z,2.80
2022-10-23T17:15:24.681Z,3.73
2022-10-23T17:18:28.551Z,4.43
2022-10-23T17:21:34.532Z,3.80
2022-10-23T17:24:40.569Z,3.72
2022-10-23T17:27:47.125Z,3.25
2022-10-23T17:30:51.216Z,3.30
2022-10-23T17:34:02.567Z,3.90
2022-10-23T17:37:06.424Z,3.28
2022-10-23T17:40:10.944Z,3.62
2022-10-23T17:43:16.009Z,2.90
2022-10-23T17:46:19.641Z,3.22
2022-10-23T17:49:30.036Z,3.45
2022-10-23T17:52:34.174Z,3.15
2022-10-23T17:55:40.294Z,3.58
2022-10-23T17:58:44.172Z,4.07
2022-10-23T18:01:50.896Z,3.45
2022-10-23T18:04:58.963Z,3.67
2022-10-23T18:08:02.487Z,3.93
2022-10-23T18:11:09.115Z,3.83
2022-10-23T18:14:14.588Z,4.10
2022-10-23T18:17:20.087Z,4.60
2022-10-23T18:20:26.501Z,4.00
2022-10-23T18:23:32.591Z,4.03
2022-10-23T18:26:38.262Z,3.90
2022-10-23T18:29:44.214Z,4.15
2022-10-23T18:32:48.298Z,4.10
2022-10-23T18:35:55.003Z,4.22
2022-10-23T18:38:58.484Z,4.05
2022-10-23T18:42:03.333Z,4.03
2022-10-23T18:45:11.122Z,3.80
2022-10-23T18:48:20.697Z,4.53
2022-10-23T18:51:36.658Z,6.85
2022-10-23T18:54:48.661Z,8.10
2022-10-23T18:57:55.746Z,7.50
2022-10-23T19:01:01.095Z,6.95
2022-10-23T19:04:05.421Z,6.60
2022-10-23T19:07:15.186Z,6.05
2022-10-23T19:10:23.718Z,6.05
2022-10-23T19:13:28.759Z,5.68
2022-10-23T19:16:47.891Z,5.63
2022-10-23T19:19:58.828Z,5.43
2022-10-23T19:23:15.960Z,5.50
2022-10-23T19:26:20.603Z,5.72
2022-10-23T19:29:28.075Z,5.40
2022-10-23T19:32:32.496Z,5.05
2022-10-23T19:35:36.123Z,5.82
2022-10-23T19:38:43.023Z,4.80
2022-10-23T19:41:47.302Z,4.55
2022-10-23T19:44:54.450Z,4.18
2022-10-23T19:48:01.011Z,3.95
2022-10-23T19:51:08.405Z,4.10
2022-10-23T19:54:13.104Z,4.15
2022-10-23T19:57:19.324Z,4.07
2022-10-23T20:00:25.913Z,4.07
2022-10-23T20:03:30.046Z,3.95
2022-10-23T20:06:38.525Z,4.00
2022-10-23T20:09:42.761Z,3.40
2022-10-23T20:12:56.391Z,4.00
2022-10-23T20:16:03.126Z,4.15
2022-10-23T20:19:09.184Z,4.22
2022-10-23T20:22:13.502Z,3.75
2022-10-23T20:25:17.092Z,3.58
2022-10-23T20:28:21.932Z,3.95
2022-10-23T20:31:27.624Z,3.70
2022-10-23T20:34:31.947Z,3.60
2022-10-23T20:37:35.241Z,3.62
2022-10-23T20:40:41.508Z,4.10
2022-10-23T20:43:45.190Z,4.87
2022-10-23T20:46:49.684Z,4.77
2022-10-23T20:49:53.082Z,5.30
2022-10-23T20:52:56.458Z,5.43
2022-10-23T20:55:59.785Z,6.82
2022-10-23T20:59:15.295Z,7.43
2022-10-23T21:02:18.392Z,7.32
2022-10-23T21:05:22.085Z,8.18
2022-10-23T21:08:24.989Z,7.85
2022-10-23T21:11:28.598Z,7.28
2022-10-23T21:14:31.359Z,7.93
2022-10-23T21:17:39.001Z,7.60
2022-10-23T21:20:42.212Z,7.15
2022-10-23T21:23:50.854Z,8.40
2022-10-23T21:26:53.658Z,8.32
2022-10-23T21:29:58.027Z,7.70
2022-10-23T21:33:01.282Z,8.73
2022-10-23T21:36:13.741Z,7.87
2022-10-23T21:39:17.266Z,8.40
2022-10-23T21:42:21.090Z,7.82
2022-10-23T21:45:24.487Z,7.40
2022-10-23T21:48:28.626Z,7.70
2022-10-23T21:51:37.321Z,7.97
2022-10-23T21:54:40.666Z,8.02
2022-10-23T21:57:44.564Z,8.25
2022-10-23T22:00:48.804Z,7.80
2022-10-23T22:03:52.609Z,8.77
2022-10-23T22:06:55.586Z,8.57
2022-10-23T22:10:02.210Z,8.43
2022-10-23T22:13:05.021Z,8.98
2022-10-23T22:16:08.399Z,7.82
2022-10-23T22:19:12.570Z,7.47
2022-10-23T22:22:15.723Z,7.32
2022-10-23T22:25:18.611Z,7.78
2022-10-23T22:28:22.294Z,8.35
2022-10-23T22:31:28.600Z,7.85
2022-10-23T22:34:51.904Z,7.97
2022-10-23T22:37:54.611Z,8.32
2022-10-23T22:41:00.071Z,8.40
2022-10-23T22:44:03.154Z,7.65
2022-10-23T22:47:07.659Z,9.30
2022-10-23T22:50:10.664Z,9.07
2022-10-23T22:53:14.162Z,9.85
2022-10-23T22:56:19.860Z,9.82
2022-10-23T22:59:23.114Z,10.88
2022-10-23T23:02:25.989Z,11.07
2022-10-23T23:05:29.466Z,10.40
2022-10-23T23:08:33.359Z,10.50
2022-10-23T23:11:45.761Z,11.27
2022-10-23T23:14:55.021Z,11.50
2022-10-23T23:17:58.325Z,11.52
2022-10-23T23:21:02.549Z,13.30
2022-10-23T23:24:05.783Z,11.52
2022-10-23T23:27:08.778Z,12.25
2022-10-23T23:30:12.041Z,12.23
2022-10-23T23:33:19.029Z,13.05
2022-10-23T23:36:26.746Z,12.18
2022-10-23T23:39:29.695Z,12.43
2022-10-23T23:42:33.612Z,12.85
2022-10-23T23:45:36.705Z,11.57
2022-10-23T23:48:42.415Z,11.25
2022-10-23T23:51:46.552Z,11.02
2022-10-23T23:54:50.049Z,11.18
2022-10-23T23:57:53.387Z,9.95
